Acton, Texas
Current Conditions -  °F | °C
As of 9:55 AM on Sunday 23 Nov 2014 (Local Time) from KGDJ Reporting Station
Clear Clear  
Wind Chill: 63°   Ceiling: Unl
Heat Index: 63°   Visibility: 10mi
Dew Point: 50°   Wind: 14mph
Humidity: 61%   Direction: 220°SW
Pressure: 29.56"   Gusts: NA
Location:  32.4693°N, 97.7085°W
Report Text: KGDJ 231555Z AUTO 22012KT 10SM CLR 17/10 A2956 RMK AO2 P0002 T01730098
Loading
Personal Weather Stations






























Interactive Weather Map New forecast layout! Learn more

10-Day Weather Forecast

Advertisements
Track Severe Weather on mobile